createdAt,value
2018-04-30T00:00:44.647Z,17.34
2018-04-30T00:03:13.071Z,17.31
2018-04-30T00:05:41.516Z,17.23
2018-04-30T00:08:10.041Z,17.25
2018-04-30T00:10:38.466Z,17.24
2018-04-30T00:13:06.900Z,17.24
2018-04-30T00:15:35.537Z,17.23
2018-04-30T00:18:04.013Z,17.21
2018-04-30T00:20:32.461Z,17.21
2018-04-30T00:23:00.915Z,17.21
2018-04-30T00:25:29.336Z,17.24
2018-04-30T00:27:57.745Z,17.25
2018-04-30T00:30:26.238Z,17.25
2018-04-30T00:32:54.662Z,17.23
2018-04-30T00:35:23.093Z,17.23
2018-04-30T00:37:51.562Z,17.22
2018-04-30T00:40:19.984Z,17.24
2018-04-30T00:42:48.418Z,17.23
2018-04-30T00:45:16.869Z,17.25
2018-04-30T00:47:45.370Z,17.21
2018-04-30T00:50:13.742Z,17.20
2018-04-30T00:52:42.202Z,17.20
2018-04-30T00:55:10.616Z,17.19
2018-04-30T00:57:39.056Z,17.17
2018-04-30T01:00:07.654Z,17.12
2018-04-30T01:02:36.061Z,17.08
2018-04-30T01:05:04.512Z,17.09
2018-04-30T01:07:32.984Z,17.08
2018-04-30T01:10:01.440Z,17.07
2018-04-30T01:12:29.867Z,17.09
2018-04-30T01:14:58.341Z,17.06
2018-04-30T01:17:26.774Z,17.06
2018-04-30T01:19:55.231Z,17.00
2018-04-30T01:22:23.723Z,16.98
2018-04-30T01:24:52.149Z,16.95
2018-04-30T01:27:20.569Z,16.91
2018-04-30T01:29:49.036Z,16.88
2018-04-30T01:32:17.449Z,16.86
2018-04-30T01:34:45.871Z,16.86
2018-04-30T01:37:14.377Z,16.83
2018-04-30T01:39:42.792Z,16.78
2018-04-30T01:42:11.197Z,16.73
2018-04-30T01:44:39.706Z,16.66
2018-04-30T01:47:08.128Z,16.62
2018-04-30T01:49:41.569Z,16.57
2018-04-30T01:52:10.020Z,16.53
2018-04-30T01:54:38.471Z,16.50
2018-04-30T01:57:06.948Z,16.47
2018-04-30T01:59:35.372Z,16.44
2018-04-30T02:02:03.812Z,16.38
2018-04-30T02:04:32.434Z,16.35
2018-04-30T02:07:00.877Z,16.32
2018-04-30T02:09:29.346Z,16.32
2018-04-30T02:11:58.069Z,16.34
2018-04-30T02:14:26.530Z,16.33
2018-04-30T02:16:55.004Z,16.37
2018-04-30T02:19:23.522Z,16.39
2018-04-30T02:21:51.960Z,16.41
2018-04-30T02:24:20.433Z,16.42
2018-04-30T02:26:48.951Z,16.43
2018-04-30T02:29:17.413Z,16.44
2018-04-30T02:31:45.862Z,16.48
2018-04-30T02:34:14.433Z,16.51
2018-04-30T02:36:42.892Z,16.50
2018-04-30T02:39:11.324Z,16.49
2018-04-30T02:41:39.833Z,16.47
2018-04-30T02:44:08.268Z,16.46
2018-04-30T02:46:36.724Z,16.47
2018-04-30T02:49:05.519Z,16.45
2018-04-30T02:51:33.997Z,16.42
2018-04-30T02:54:02.489Z,16.41
2018-04-30T02:56:30.989Z,16.38
2018-04-30T02:58:59.430Z,16.38
2018-04-30T03:01:28.099Z,16.41
2018-04-30T03:03:56.548Z,16.42
2018-04-30T03:06:24.969Z,16.38
2018-04-30T03:08:53.429Z,16.33
2018-04-30T03:11:21.909Z,16.31
2018-04-30T03:13:50.341Z,16.30
2018-04-30T03:16:18.792Z,16.28
2018-04-30T03:18:47.270Z,16.32
2018-04-30T03:21:15.698Z,16.34
2018-04-30T03:23:44.135Z,16.33
2018-04-30T03:26:12.618Z,16.36
2018-04-30T03:28:41.038Z,16.38
2018-04-30T03:31:09.498Z,16.47
2018-04-30T03:33:37.985Z,16.47
2018-04-30T03:36:06.428Z,16.49
2018-04-30T03:38:34.862Z,16.47
2018-04-30T03:41:03.345Z,16.46
2018-04-30T03:43:31.776Z,16.41
2018-04-30T03:46:00.204Z,16.35
2018-04-30T03:48:28.671Z,16.32
2018-04-30T03:50:57.096Z,16.28
2018-04-30T03:53:25.540Z,16.24
2018-04-30T03:55:54.036Z,16.20
2018-04-30T03:58:22.464Z,16.18
2018-04-30T04:01:02.605Z,16.16
2018-04-30T04:03:42.892Z,16.16
2018-04-30T04:09:11.182Z,16.12
2018-04-30T04:11:39.666Z,16.07
2018-04-30T04:14:08.089Z,15.94
2018-04-30T04:16:36.508Z,15.90
2018-04-30T04:19:05.016Z,15.86
2018-04-30T04:21:33.449Z,15.87
2018-04-30T04:24:01.912Z,15.87
2018-04-30T04:26:30.393Z,15.88
2018-04-30T04:28:58.813Z,15.88
2018-04-30T04:31:27.265Z,15.88
2018-04-30T04:33:55.748Z,15.91
2018-04-30T04:36:24.184Z,15.91
2018-04-30T04:38:52.617Z,15.94
2018-04-30T04:41:21.090Z,15.93
2018-04-30T04:43:49.701Z,15.92
2018-04-30T04:46:18.128Z,15.94
2018-04-30T04:48:46.609Z,15.90
2018-04-30T04:51:15.053Z,15.87
2018-04-30T04:53:43.480Z,15.81
2018-04-30T04:56:12.009Z,15.77
2018-04-30T04:58:40.437Z,15.75
2018-04-30T05:01:08.863Z,15.82
2018-04-30T05:03:37.343Z,15.75
2018-04-30T05:06:05.825Z,15.77
2018-04-30T05:08:34.240Z,15.78
2018-04-30T05:11:02.705Z,15.80
2018-04-30T05:13:31.135Z,15.76
2018-04-30T05:15:59.572Z,15.78
2018-04-30T05:18:28.060Z,15.82
2018-04-30T05:20:56.520Z,15.79
2018-04-30T05:23:24.980Z,15.81
2018-04-30T05:25:53.441Z,15.95
2018-04-30T05:28:21.867Z,16.08
2018-04-30T05:30:50.285Z,16.05
2018-04-30T05:33:18.971Z,16.19
2018-04-30T05:35:47.404Z,16.31
2018-04-30T05:38:15.829Z,16.44
2018-04-30T05:40:44.288Z,16.55
2018-04-30T05:43:12.715Z,16.66
2018-04-30T05:45:41.144Z,16.80
2018-04-30T05:48:09.649Z,16.98
2018-04-30T05:50:38.072Z,17.29
2018-04-30T05:53:06.524Z,17.41
2018-04-30T05:55:35.000Z,17.55
2018-04-30T05:58:03.458Z,17.57
2018-04-30T06:00:31.961Z,17.51
2018-04-30T06:03:00.412Z,17.52
2018-04-30T06:05:28.841Z,17.52
2018-04-30T06:07:57.280Z,17.53
2018-04-30T06:10:25.735Z,17.55
2018-04-30T06:12:54.164Z,17.57
2018-04-30T06:15:22.601Z,17.59
2018-04-30T06:17:51.084Z,17.63
2018-04-30T06:20:19.564Z,17.62
2018-04-30T06:22:48.031Z,17.60
2018-04-30T06:25:16.508Z,17.57
2018-04-30T06:27:44.927Z,17.58
2018-04-30T06:30:13.357Z,17.61
2018-04-30T06:32:41.832Z,17.61
2018-04-30T06:35:10.256Z,17.63
2018-04-30T06:37:38.672Z,17.69
2018-04-30T06:40:07.149Z,17.77
2018-04-30T06:42:35.571Z,17.87
2018-04-30T06:45:04.028Z,17.96
2018-04-30T06:47:32.508Z,17.98
2018-04-30T06:50:00.940Z,18.02
2018-04-30T06:52:29.364Z,18.05
2018-04-30T06:54:57.835Z,18.03
2018-04-30T06:57:26.258Z,18.09
2018-04-30T06:59:54.676Z,18.12
2018-04-30T07:02:23.144Z,17.98
2018-04-30T07:04:51.574Z,17.99
2018-04-30T07:07:20.000Z,18.03
2018-04-30T07:09:48.468Z,18.04
2018-04-30T07:12:16.881Z,18.15
2018-04-30T07:14:45.292Z,18.12
2018-04-30T07:17:13.745Z,18.10
2018-04-30T07:19:42.177Z,18.16
2018-04-30T07:22:10.604Z,18.14
2018-04-30T07:24:39.068Z,18.16
2018-04-30T07:27:07.499Z,18.20
2018-04-30T07:29:35.922Z,18.17
2018-04-30T07:32:04.395Z,18.07
2018-04-30T07:34:32.838Z,17.95
2018-04-30T07:37:01.254Z,17.93
2018-04-30T07:39:29.709Z,17.81
2018-04-30T07:41:58.137Z,17.70
2018-04-30T07:44:26.545Z,17.65
2018-04-30T07:46:55.027Z,17.50
2018-04-30T07:49:23.441Z,17.48
2018-04-30T07:51:51.860Z,17.49
2018-04-30T07:54:20.704Z,17.50
2018-04-30T07:56:49.111Z,17.50
2018-04-30T07:59:17.512Z,17.53
2018-04-30T08:01:45.962Z,17.45
2018-04-30T08:04:14.429Z,17.37
2018-04-30T08:06:42.842Z,17.16
2018-04-30T08:09:11.534Z,17.19
2018-04-30T08:11:39.949Z,17.23
2018-04-30T08:14:08.396Z,17.25
2018-04-30T08:16:36.852Z,17.22
2018-04-30T08:19:05.328Z,17.14
2018-04-30T08:21:33.798Z,17.13
2018-04-30T08:24:02.250Z,17.13
2018-04-30T08:26:30.742Z,17.14
2018-04-30T08:28:59.152Z,17.16
2018-04-30T08:31:27.600Z,17.29
2018-04-30T08:33:56.014Z,17.33
2018-04-30T08:36:24.425Z,17.23
2018-04-30T08:38:52.881Z,17.29
2018-04-30T08:41:21.296Z,17.15
2018-04-30T08:43:49.699Z,17.26
2018-04-30T08:46:18.162Z,17.30
2018-04-30T08:48:46.563Z,17.18
2018-04-30T08:51:14.980Z,17.22
2018-04-30T08:53:43.439Z,17.17
2018-04-30T08:56:11.888Z,17.19
2018-04-30T08:58:40.308Z,17.25
2018-04-30T09:01:08.790Z,17.30
2018-04-30T09:03:37.197Z,17.33
2018-04-30T09:06:05.644Z,17.37
2018-04-30T09:08:34.099Z,17.47
2018-04-30T09:11:02.536Z,17.28
2018-04-30T09:13:30.953Z,17.21
2018-04-30T09:15:59.408Z,17.34
2018-04-30T09:18:28.038Z,17.47
2018-04-30T09:20:56.454Z,17.43
2018-04-30T09:23:24.913Z,17.38
2018-04-30T09:25:53.344Z,17.37
2018-04-30T09:28:21.760Z,17.40
2018-04-30T09:30:50.230Z,17.43
2018-04-30T09:33:18.645Z,17.48
2018-04-30T09:35:47.073Z,17.40
2018-04-30T09:38:15.520Z,17.25
2018-04-30T09:40:43.937Z,17.10
2018-04-30T09:43:12.344Z,17.11
2018-04-30T09:45:40.820Z,16.92
2018-04-30T09:48:09.231Z,16.84
2018-04-30T09:50:37.680Z,16.75
2018-04-30T09:53:06.140Z,16.67
2018-04-30T09:55:34.579Z,16.71
2018-04-30T09:58:02.993Z,16.62
2018-04-30T10:00:31.441Z,16.59
2018-04-30T10:02:59.860Z,16.58
2018-04-30T10:05:28.276Z,16.66
2018-04-30T10:07:56.728Z,16.69
2018-04-30T10:10:25.140Z,16.74
2018-04-30T10:12:53.571Z,16.80
2018-04-30T10:15:22.056Z,16.67
2018-04-30T10:17:50.572Z,16.60
2018-04-30T10:20:18.960Z,16.55
2018-04-30T10:22:47.412Z,16.48
2018-04-30T10:25:15.820Z,16.46
2018-04-30T10:27:44.241Z,16.44
2018-04-30T10:30:12.700Z,16.47
2018-04-30T10:32:41.134Z,16.49
2018-04-30T10:35:09.543Z,16.46
2018-04-30T10:37:37.993Z,16.34
2018-04-30T10:40:06.409Z,16.39
2018-04-30T10:42:34.830Z,16.42
2018-04-30T10:45:03.295Z,16.06
2018-04-30T10:47:31.699Z,16.18
2018-04-30T10:50:00.135Z,16.23
2018-04-30T10:52:28.610Z,16.33
2018-04-30T10:54:57.028Z,16.42
2018-04-30T10:57:25.432Z,16.34
2018-04-30T10:59:53.916Z,16.31
2018-04-30T11:02:22.330Z,16.31
2018-04-30T11:04:50.740Z,16.36
2018-04-30T11:07:19.196Z,16.26
2018-04-30T11:09:47.612Z,16.23
2018-04-30T11:12:16.034Z,16.08
2018-04-30T11:14:44.486Z,16.11
2018-04-30T11:17:12.902Z,16.25
2018-04-30T11:19:41.315Z,16.57
2018-04-30T11:22:09.772Z,16.86
2018-04-30T11:24:38.184Z,16.98
2018-04-30T11:27:06.595Z,16.98
2018-04-30T11:29:35.058Z,16.97
2018-04-30T11:32:03.464Z,16.99
2018-04-30T11:34:31.873Z,16.85
2018-04-30T11:37:00.340Z,16.83
2018-04-30T11:39:28.812Z,16.77
2018-04-30T11:41:57.239Z,16.84
2018-04-30T11:44:25.729Z,16.78
2018-04-30T11:46:54.161Z,16.74
2018-04-30T11:49:22.597Z,16.62
2018-04-30T11:51:51.100Z,16.60
2018-04-30T11:54:19.548Z,16.44
2018-04-30T11:56:47.997Z,16.45
2018-04-30T11:59:16.465Z,16.48
2018-04-30T12:01:44.884Z,16.49
2018-04-30T12:04:13.302Z,16.42
2018-04-30T12:06:41.787Z,16.47
2018-04-30T12:09:10.564Z,16.42
2018-04-30T12:11:38.984Z,16.44
2018-04-30T12:14:07.448Z,16.63
2018-04-30T12:16:35.912Z,16.75
2018-04-30T12:19:04.338Z,16.74
2018-04-30T12:21:32.833Z,16.62
2018-04-30T12:24:01.293Z,16.57
2018-04-30T12:26:29.768Z,16.67
2018-04-30T12:28:58.259Z,16.80
2018-04-30T12:31:26.696Z,16.99
2018-04-30T12:33:55.140Z,17.12
2018-04-30T12:36:23.601Z,17.25
2018-04-30T12:38:52.024Z,17.31
2018-04-30T12:41:20.451Z,17.34
2018-04-30T12:43:48.927Z,17.45
2018-04-30T12:46:17.356Z,17.25
2018-04-30T12:48:45.782Z,17.16
2018-04-30T12:51:14.253Z,17.09
2018-04-30T12:53:42.668Z,17.23
2018-04-30T12:56:11.083Z,17.17
2018-04-30T12:58:39.563Z,17.50
2018-04-30T13:01:07.984Z,17.43
2018-04-30T13:03:36.404Z,17.28
2018-04-30T13:06:04.873Z,17.37
2018-04-30T13:08:33.292Z,17.33
2018-04-30T13:11:01.717Z,17.36
2018-04-30T13:13:30.376Z,17.39
2018-04-30T13:15:58.832Z,17.59
2018-04-30T13:18:27.247Z,17.79
2018-04-30T13:20:55.691Z,18.32
2018-04-30T13:23:24.105Z,18.33
2018-04-30T13:25:52.524Z,17.85
2018-04-30T13:28:20.992Z,17.76
2018-04-30T13:30:49.394Z,17.59
2018-04-30T13:33:17.808Z,17.38
2018-04-30T13:35:46.298Z,17.47
2018-04-30T13:38:14.700Z,17.51
2018-04-30T13:40:43.112Z,17.60
2018-04-30T13:43:11.577Z,17.86
2018-04-30T13:45:40.002Z,18.16
2018-04-30T13:48:08.412Z,18.30
2018-04-30T13:50:36.865Z,18.32
2018-04-30T13:53:05.268Z,18.12
2018-04-30T13:55:33.672Z,17.83
2018-04-30T13:58:02.116Z,17.73
2018-04-30T14:00:30.520Z,17.95
2018-04-30T14:02:58.932Z,18.04
2018-04-30T14:05:27.385Z,17.88
2018-04-30T14:07:55.800Z,17.86
2018-04-30T14:10:24.211Z,17.79
2018-04-30T14:12:52.668Z,17.77
2018-04-30T14:15:21.070Z,17.76
2018-04-30T14:17:49.480Z,17.66
2018-04-30T14:20:17.933Z,17.72
2018-04-30T14:22:46.336Z,17.92
2018-04-30T14:25:14.758Z,18.00
2018-04-30T14:27:43.232Z,17.84
2018-04-30T14:30:11.652Z,17.74
2018-04-30T14:32:40.052Z,17.76
2018-04-30T14:35:08.561Z,17.54
2018-04-30T14:37:36.968Z,17.54
2018-04-30T14:40:05.380Z,17.32
2018-04-30T14:42:33.835Z,17.42
2018-04-30T14:45:02.248Z,17.63
2018-04-30T14:47:30.656Z,17.85
2018-04-30T14:49:59.091Z,17.97
2018-04-30T14:52:27.496Z,18.09
2018-04-30T14:54:55.904Z,18.02
2018-04-30T14:57:24.351Z,17.97
2018-04-30T14:59:52.760Z,17.92
2018-04-30T15:02:21.174Z,18.01
2018-04-30T15:04:49.627Z,17.88
2018-04-30T15:07:18.040Z,17.83
2018-04-30T15:09:46.449Z,17.67
2018-04-30T15:12:14.932Z,17.69
2018-04-30T15:14:43.344Z,17.72
2018-04-30T15:17:11.744Z,17.77
2018-04-30T15:19:40.188Z,17.77
2018-04-30T15:22:08.605Z,17.79
2018-04-30T15:24:37.016Z,17.80
2018-04-30T15:27:05.492Z,17.83
2018-04-30T15:29:33.906Z,17.77
2018-04-30T15:32:02.315Z,17.75
2018-04-30T15:34:30.756Z,17.80
2018-04-30T15:36:59.168Z,17.82
2018-04-30T15:39:27.572Z,17.89
2018-04-30T15:41:56.020Z,17.86
2018-04-30T15:44:24.453Z,17.78
2018-04-30T15:46:52.872Z,17.71
2018-04-30T15:49:21.329Z,17.70
2018-04-30T15:51:49.737Z,17.77
2018-04-30T15:54:18.147Z,17.73
2018-04-30T15:56:46.589Z,17.81
2018-04-30T15:59:15.000Z,17.82
2018-04-30T16:01:43.416Z,17.75
2018-04-30T16:04:11.881Z,17.71
2018-04-30T16:06:40.288Z,17.73
2018-04-30T16:09:08.693Z,17.82
2018-04-30T16:11:37.136Z,17.84
2018-04-30T16:14:05.651Z,17.91
2018-04-30T16:16:33.984Z,17.85
2018-04-30T16:19:02.444Z,17.93
2018-04-30T16:21:30.848Z,17.94
2018-04-30T16:23:59.284Z,17.95
2018-04-30T16:26:27.740Z,17.81
2018-04-30T16:28:56.166Z,17.81
2018-04-30T16:31:24.575Z,17.65
2018-04-30T16:33:53.068Z,17.53
2018-04-30T16:36:21.505Z,17.51
2018-04-30T16:38:49.910Z,17.43
2018-04-30T16:41:18.356Z,17.39
2018-04-30T16:43:46.768Z,17.30
2018-04-30T16:46:15.173Z,17.28
2018-04-30T16:48:43.623Z,17.29
2018-04-30T16:51:12.056Z,17.30
2018-04-30T16:53:40.488Z,17.20
2018-04-30T16:56:08.973Z,17.18
2018-04-30T16:58:37.417Z,17.15
2018-04-30T17:01:05.820Z,17.12
2018-04-30T17:03:34.303Z,17.11
2018-04-30T17:06:02.717Z,17.09
2018-04-30T17:08:31.132Z,16.96
2018-04-30T17:10:59.593Z,16.96
2018-04-30T17:13:27.999Z,16.89
2018-04-30T17:15:56.412Z,16.85
2018-04-30T17:18:24.857Z,16.79
2018-04-30T17:20:53.260Z,16.70
2018-04-30T17:23:21.663Z,16.70
2018-04-30T17:25:50.124Z,16.73
2018-04-30T17:28:18.561Z,16.63
2018-04-30T17:30:47.033Z,16.62
2018-04-30T17:33:15.484Z,16.58
2018-04-30T17:35:43.911Z,16.50
2018-04-30T17:38:12.323Z,16.47
2018-04-30T17:40:40.782Z,16.43
2018-04-30T17:43:09.188Z,16.42
2018-04-30T17:45:37.589Z,16.32
2018-04-30T17:48:06.036Z,16.31
2018-04-30T17:50:34.448Z,16.29
2018-04-30T17:53:02.857Z,16.23
2018-04-30T17:55:31.309Z,16.20
2018-04-30T17:57:59.732Z,16.16
2018-04-30T18:00:28.156Z,16.13
2018-04-30T18:02:56.634Z,16.11
2018-04-30T18:05:25.049Z,16.08
2018-04-30T18:07:53.465Z,16.07
2018-04-30T18:10:21.925Z,16.01
2018-04-30T18:12:50.328Z,15.98
2018-04-30T18:15:18.737Z,15.83
2018-04-30T18:17:47.200Z,15.86
2018-04-30T18:20:15.617Z,15.82
2018-04-30T18:22:44.026Z,15.75
2018-04-30T18:25:12.507Z,15.79
2018-04-30T18:27:40.925Z,15.73
2018-04-30T18:30:09.333Z,15.78
2018-04-30T18:32:37.781Z,15.73
2018-04-30T18:35:06.216Z,15.64
2018-04-30T18:37:34.619Z,15.61
2018-04-30T18:40:03.089Z,15.62
2018-04-30T18:42:31.951Z,15.55
2018-04-30T18:45:00.355Z,15.55
2018-04-30T18:47:28.804Z,15.49
2018-04-30T18:49:57.236Z,15.44
2018-04-30T18:52:25.732Z,15.36
2018-04-30T18:54:54.128Z,15.31
2018-04-30T18:57:22.557Z,15.25
2018-04-30T18:59:50.960Z,15.24
2018-04-30T19:02:19.412Z,15.18
2018-04-30T19:04:47.824Z,15.05
2018-04-30T19:07:16.228Z,15.01
2018-04-30T19:09:44.676Z,14.91
2018-04-30T19:12:13.100Z,14.94
2018-04-30T19:14:41.516Z,14.83
2018-04-30T19:17:09.960Z,14.86
2018-04-30T19:19:38.360Z,14.84
2018-04-30T19:22:06.780Z,14.81
2018-04-30T19:24:35.239Z,14.70
2018-04-30T19:27:03.708Z,14.66
2018-04-30T19:29:32.096Z,14.54
2018-04-30T19:32:00.544Z,14.35
2018-04-30T19:34:28.949Z,14.40
2018-04-30T19:36:57.364Z,14.39
2018-04-30T19:39:25.816Z,14.30
2018-04-30T19:41:54.224Z,14.25
2018-04-30T19:44:22.637Z,14.20
2018-04-30T19:46:51.144Z,14.17
2018-04-30T19:49:19.554Z,14.08
2018-04-30T19:51:47.962Z,14.08
2018-04-30T19:54:16.410Z,14.04
2018-04-30T19:56:44.816Z,14.03
2018-04-30T19:59:13.224Z,14.06
2018-04-30T20:01:41.673Z,13.98
2018-04-30T20:04:10.076Z,13.88
2018-04-30T20:06:38.481Z,13.90
2018-04-30T20:09:06.932Z,13.85
2018-04-30T20:11:35.347Z,13.86
2018-04-30T20:14:03.784Z,13.84
2018-04-30T20:16:32.232Z,13.72
2018-04-30T20:19:00.649Z,13.72
2018-04-30T20:21:29.076Z,13.69
2018-04-30T20:23:57.544Z,13.69
2018-04-30T20:26:25.963Z,13.71
2018-04-30T20:28:54.380Z,13.70
2018-04-30T20:31:22.840Z,13.71
2018-04-30T20:33:51.252Z,13.65
2018-04-30T20:36:19.667Z,13.68
2018-04-30T20:38:48.116Z,13.68
2018-04-30T20:41:16.529Z,13.65
2018-04-30T20:43:44.944Z,13.63
2018-04-30T20:46:13.392Z,13.58
2018-04-30T20:48:41.800Z,13.57
2018-04-30T20:51:10.200Z,13.51
2018-04-30T20:53:38.656Z,13.51
2018-04-30T20:56:07.077Z,13.52
2018-04-30T20:58:35.480Z,13.39
2018-04-30T21:01:03.947Z,13.34
2018-04-30T21:03:32.356Z,13.31
2018-04-30T21:06:00.768Z,13.30
2018-04-30T21:08:29.260Z,13.29
2018-04-30T21:10:57.666Z,13.25
2018-04-30T21:13:26.081Z,13.18
2018-04-30T21:15:54.552Z,13.23
2018-04-30T21:18:22.965Z,13.23
2018-04-30T21:20:51.377Z,13.17
2018-04-30T21:23:19.841Z,13.18
2018-04-30T21:25:48.241Z,13.12
2018-04-30T21:28:16.645Z,13.07
2018-04-30T21:30:45.085Z,13.12
2018-04-30T21:33:13.489Z,13.11
2018-04-30T21:35:41.896Z,13.08
2018-04-30T21:38:10.344Z,13.01
2018-04-30T21:40:38.752Z,13.02
2018-04-30T21:43:07.158Z,13.05
2018-04-30T21:45:35.607Z,13.07
2018-04-30T21:48:04.012Z,12.99
2018-04-30T21:50:32.413Z,12.97
2018-04-30T21:53:00.876Z,12.95
2018-04-30T21:55:29.278Z,12.94
2018-04-30T21:57:57.672Z,12.97
2018-04-30T22:00:27.999Z,13.05
2018-04-30T22:02:56.454Z,13.02
2018-04-30T22:05:24.868Z,12.99
2018-04-30T22:07:53.332Z,13.00
2018-04-30T22:10:21.733Z,13.02
2018-04-30T22:12:50.171Z,12.99
2018-04-30T22:15:18.624Z,12.93
2018-04-30T22:17:47.020Z,12.89
2018-04-30T22:20:15.440Z,12.89
2018-04-30T22:22:43.880Z,12.86
2018-04-30T22:25:12.301Z,12.87
2018-04-30T22:27:40.703Z,12.86
2018-04-30T22:30:09.154Z,12.88
2018-04-30T22:32:37.563Z,12.85
2018-04-30T22:35:05.971Z,12.84
2018-04-30T22:37:34.421Z,12.79
2018-04-30T22:40:02.857Z,12.83
2018-04-30T22:42:31.259Z,12.82
2018-04-30T22:44:59.723Z,12.84
2018-04-30T22:47:28.129Z,12.84
2018-04-30T22:49:56.564Z,12.84
2018-04-30T22:52:25.010Z,12.78
2018-04-30T22:54:53.421Z,12.75
2018-04-30T22:57:21.824Z,12.75
2018-04-30T22:59:50.272Z,12.69
2018-04-30T23:02:18.685Z,12.71
2018-04-30T23:04:47.093Z,12.64
2018-04-30T23:07:15.557Z,12.58
2018-04-30T23:09:43.968Z,12.61
2018-04-30T23:12:12.376Z,12.62
2018-04-30T23:14:40.820Z,12.61
2018-04-30T23:17:09.224Z,12.58
2018-04-30T23:19:37.637Z,12.59
2018-04-30T23:22:06.127Z,12.64
2018-04-30T23:24:34.632Z,12.64
2018-04-30T23:27:03.066Z,12.61
2018-04-30T23:29:31.536Z,12.58
2018-04-30T23:31:59.940Z,12.60
2018-04-30T23:34:28.381Z,12.58
2018-04-30T23:36:56.878Z,12.52
2018-04-30T23:39:25.288Z,12.51
2018-04-30T23:41:53.688Z,12.51
2018-04-30T23:44:22.135Z,12.50
2018-04-30T23:46:50.542Z,12.48
2018-04-30T23:49:18.956Z,12.46
2018-04-30T23:51:47.410Z,12.45
2018-04-30T23:54:15.824Z,12.40
2018-04-30T23:56:44.234Z,12.42
2018-04-30T23:59:12.736Z,12.40
